Thalassa — FNFP — position and weather

sailwx.info

Track history (hours):
 
Tides and Currents Weather Stations Pressure Air Temp Water Temp Dewpoint Dewpoint Depression Visibility Wind Speed Wind Dir Waves Ship Positions

Oceanographic research ship Thalassa (France & Spain)

Detailed information on ship capabilities available from University of Delaware's Ocean Information Center.

Last reported at 2019-Dec-06 04:09 UTC. Time now 2019-Dec-06 05:35 UTC.
Position N 48°07' W 005°58'.

Length 74 m; beam 15 m.

Type: Other ship. MMSI: 227297000.

Date/timePositionNaut miles runAvg speedWind from/ knotsBaromVisibWave heightAir tempDewpointWater temp
2019-Dec-06 04:09N 48°07' W 005°58'16 6.9
2019-Dec-06 01:48N 48°20' W 006°13'3 6.9
2019-Dec-06 01:18N 48°23' W 006°16'23 4.0
2019-Dec-05 19:25N 48°41' W 006°39'3 2.6
2019-Dec-05 18:05N 48°44' W 006°38'3 3.5
2019-Dec-05 17:08N 48°41' W 006°40'156 3.2
2019-Dec-03 16:50N 51°05' W 005°10'4 2.2
2019-Dec-03 15:00N 51°06' W 005°03'1711.2
2019-Dec-03 13:30N 51°20' W 004°51'11 5.7
2019-Dec-03 11:30N 51°24' W 005°08'9 4.5
2019-Dec-03 09:30N 51°24' W 005°22'611.7
2019-Dec-03 08:58N 51°19' W 005°29'3 7.0
2019-Dec-03 08:30N 51°17' W 005°32'3 2.9
2019-Dec-03 07:30N 51°14' W 005°29'1 1.1
2019-Dec-03 06:14N 51°15' W 005°30'1 1.0
2019-Dec-03 05:24N 51°15' W 005°31'5 5.7
2019-Dec-03 04:29N 51°16' W 005°39'3 6.4
2019-Dec-03 04:00N 51°17' W 005°44'3 6.3
2019-Dec-03 03:28N 51°18' W 005°49'20 6.0
2019-Dec-03 00:08N 51°25' W 006°19'19 6.2
2019-Dec-02 21:00N 51°30' W 006°49'16 6.2
2019-Dec-02 18:24N 51°35' W 007°14'6 6.2
2019-Dec-02 17:30N 51°37' W 007°22'2 4.5
2019-Dec-02 17:00N 51°38' W 007°26'0 0.3
2019-Dec-02 15:56N 51°38' W 007°25'20 6.9
2019-Dec-02 12:57N 51°18' W 007°30'10 7.1
2019-Dec-02 11:30N 51°21' W 007°46'24 8.0
2019-Dec-02 08:30N 51°31' W 008°21'8 7.9
2019-Dec-02 07:30N 51°39' W 008°17'611.0
2019-Dec-02 07:00N 51°44' W 008°15'3 3.3
2019-Dec-02 06:00N 51°42' W 008°12'10 6.7
2019-Dec-02 04:30N 51°34' W 008°02'3 6.7
2019-Dec-02 04:00N 51°31' W 007°59'3 6.8
2019-Dec-02 03:30N 51°28' W 007°55'9 4.7
2019-Dec-02 01:30N 51°21' W 007°46'1 0.3
2019-Dec-01 23:30N 51°21' W 007°46'  
Track history (hours):
 
Tides and Currents Weather Stations Pressure Air Temp Water Temp Dewpoint Dewpoint Depression Visibility Wind Speed Wind Dir Waves Ship Positions

Oceanographic research ship Thalassa (France & Spain)

Detailed information on ship capabilities available from University of Delaware's Ocean Information Center.

Last reported at 2019-Dec-06 04:09 UTC. Time now 2019-Dec-06 05:35 UTC.
Position N 48°07' W 005°58'.

Length 74 m; beam 15 m.

Type: Other ship. MMSI: 227297000.

Date/timePositionNaut miles runAvg speedWind from/ knotsBaromVisibWave heightAir tempDewpointWater temp
2019-Dec-06 04:09N 48°07' W 005°58'16 6.9
2019-Dec-06 01:48N 48°20' W 006°13'3 6.9
2019-Dec-06 01:18N 48°23' W 006°16'23 4.0
2019-Dec-05 19:25N 48°41' W 006°39'3 2.6
2019-Dec-05 18:05N 48°44' W 006°38'3 3.5
2019-Dec-05 17:08N 48°41' W 006°40'156 3.2
2019-Dec-03 16:50N 51°05' W 005°10'4 2.2
2019-Dec-03 15:00N 51°06' W 005°03'1711.2
2019-Dec-03 13:30N 51°20' W 004°51'11 5.7
2019-Dec-03 11:30N 51°24' W 005°08'9 4.5
2019-Dec-03 09:30N 51°24' W 005°22'611.7
2019-Dec-03 08:58N 51°19' W 005°29'3 7.0
2019-Dec-03 08:30N 51°17' W 005°32'3 2.9
2019-Dec-03 07:30N 51°14' W 005°29'1 1.1
2019-Dec-03 06:14N 51°15' W 005°30'1 1.0
2019-Dec-03 05:24N 51°15' W 005°31'5 5.7
2019-Dec-03 04:29N 51°16' W 005°39'3 6.4
2019-Dec-03 04:00N 51°17' W 005°44'3 6.3
2019-Dec-03 03:28N 51°18' W 005°49'20 6.0
2019-Dec-03 00:08N 51°25' W 006°19'19 6.2
2019-Dec-02 21:00N 51°30' W 006°49'16 6.2
2019-Dec-02 18:24N 51°35' W 007°14'6 6.2
2019-Dec-02 17:30N 51°37' W 007°22'2 4.5
2019-Dec-02 17:00N 51°38' W 007°26'0 0.3
2019-Dec-02 15:56N 51°38' W 007°25'20 6.9
2019-Dec-02 12:57N 51°18' W 007°30'10 7.1
2019-Dec-02 11:30N 51°21' W 007°46'24 8.0
2019-Dec-02 08:30N 51°31' W 008°21'8 7.9
2019-Dec-02 07:30N 51°39' W 008°17'611.0
2019-Dec-02 07:00N 51°44' W 008°15'3 3.3
2019-Dec-02 06:00N 51°42' W 008°12'10 6.7
2019-Dec-02 04:30N 51°34' W 008°02'3 6.7
2019-Dec-02 04:00N 51°31' W 007°59'3 6.8
2019-Dec-02 03:30N 51°28' W 007°55'9 4.7
2019-Dec-02 01:30N 51°21' W 007°46'1 0.3
2019-Dec-01 23:30N 51°21' W 007°46'  

Dump ship's entire track history